createdAt,value
2018-05-02T00:00:31.934Z,18.28
2018-05-02T00:01:31.938Z,18.28
2018-05-02T00:02:32.042Z,18.29
2018-05-02T00:03:31.883Z,18.28
2018-05-02T00:04:32.004Z,18.26
2018-05-02T00:05:31.813Z,18.29
2018-05-02T00:06:31.978Z,18.29
2018-05-02T00:07:31.994Z,18.28
2018-05-02T00:08:32.056Z,18.29
2018-05-02T00:09:31.881Z,18.28
2018-05-02T00:10:31.999Z,18.28
2018-05-02T00:11:31.908Z,18.28
2018-05-02T00:12:31.992Z,18.28
2018-05-02T00:13:31.980Z,18.26
2018-05-02T00:14:32.016Z,18.26
2018-05-02T00:15:31.983Z,18.26
2018-05-02T00:16:31.866Z,18.29
2018-05-02T00:17:31.811Z,18.28
2018-05-02T00:18:31.829Z,18.28
2018-05-02T00:19:32.004Z,18.23
2018-05-02T00:20:31.865Z,18.28
2018-05-02T00:21:31.890Z,18.28
2018-05-02T00:22:32.088Z,18.22
2018-05-02T00:23:32.000Z,18.28
2018-05-02T00:24:31.812Z,18.25
2018-05-02T00:25:55.580Z,18.23
2018-05-02T00:26:31.904Z,18.25
2018-05-02T00:27:31.954Z,18.28
2018-05-02T00:28:32.432Z,18.22
2018-05-02T00:29:32.029Z,18.25
2018-05-02T00:30:32.011Z,18.25
2018-05-02T00:31:31.949Z,18.22
2018-05-02T00:32:31.920Z,18.22
2018-05-02T00:33:31.844Z,18.26
2018-05-02T00:34:32.077Z,18.23
2018-05-02T00:35:31.882Z,18.23
2018-05-02T00:36:32.001Z,18.26
2018-05-02T00:37:31.832Z,18.23
2018-05-02T00:38:31.819Z,18.25
2018-05-02T00:39:31.925Z,18.25
2018-05-02T00:40:32.029Z,18.23
2018-05-02T00:41:31.977Z,18.25
2018-05-02T00:42:32.084Z,18.23
2018-05-02T00:43:31.974Z,18.25
2018-05-02T00:44:32.017Z,18.23
2018-05-02T00:45:31.848Z,18.23
2018-05-02T00:46:31.825Z,18.19
2018-05-02T00:47:31.999Z,18.25
2018-05-02T00:48:31.892Z,18.21
2018-05-02T00:49:32.061Z,18.22
2018-05-02T00:50:31.854Z,18.23
2018-05-02T00:51:31.859Z,18.22
2018-05-02T00:52:32.061Z,18.22
2018-05-02T00:53:31.956Z,18.25
2018-05-02T00:54:31.855Z,18.23
2018-05-02T00:55:31.776Z,18.19
2018-05-02T00:56:31.957Z,18.19
2018-05-02T00:57:32.284Z,18.23
2018-05-02T00:58:31.865Z,18.21
2018-05-02T00:59:32.009Z,18.21
2018-05-02T01:00:32.237Z,18.22
2018-05-02T01:01:31.881Z,18.19
2018-05-02T01:02:31.851Z,18.21
2018-05-02T01:03:31.757Z,18.22
2018-05-02T01:04:32.084Z,18.22
2018-05-02T01:05:31.843Z,18.22
2018-05-02T01:06:31.964Z,18.21
2018-05-02T01:07:31.921Z,18.21
2018-05-02T01:08:31.925Z,18.22
2018-05-02T01:09:31.881Z,18.22
2018-05-02T01:10:31.822Z,18.21
2018-05-02T01:11:31.996Z,18.19
2018-05-02T01:12:31.973Z,18.18
2018-05-02T01:13:31.891Z,18.19
2018-05-02T01:14:32.019Z,18.21
2018-05-02T01:15:31.967Z,18.19
2018-05-02T01:16:31.866Z,18.18
2018-05-02T01:17:31.918Z,18.21
2018-05-02T01:18:31.958Z,18.21
2018-05-02T01:19:31.990Z,18.16
2018-05-02T01:20:32.023Z,18.18
2018-05-02T01:21:31.872Z,18.21
2018-05-02T01:22:31.906Z,18.18
2018-05-02T01:23:31.901Z,18.19
2018-05-02T01:24:31.835Z,18.22
2018-05-02T01:25:32.028Z,18.16
2018-05-02T01:26:31.802Z,18.18
2018-05-02T01:27:31.799Z,18.18
2018-05-02T01:28:31.781Z,18.16
2018-05-02T01:29:31.826Z,18.16
2018-05-02T01:30:31.901Z,18.19
2018-05-02T01:31:31.995Z,18.19
2018-05-02T01:32:32.190Z,18.19
2018-05-02T01:33:31.903Z,18.19
2018-05-02T01:34:31.929Z,18.16
2018-05-02T01:35:32.044Z,18.16
2018-05-02T01:36:31.925Z,18.19
2018-05-02T01:37:31.909Z,18.13
2018-05-02T01:38:31.774Z,18.16
2018-05-02T01:39:31.821Z,18.19
2018-05-02T01:40:31.872Z,18.13
2018-05-02T01:41:31.876Z,18.16
2018-05-02T01:42:31.947Z,18.19
2018-05-02T01:43:31.928Z,18.15
2018-05-02T01:44:31.904Z,18.19
2018-05-02T01:45:31.950Z,18.19
2018-05-02T01:46:31.937Z,18.15
2018-05-02T01:47:31.847Z,18.16
2018-05-02T01:48:31.828Z,18.16
2018-05-02T01:49:31.856Z,18.16
2018-05-02T01:50:31.921Z,18.16
2018-05-02T01:51:31.933Z,18.16
2018-05-02T01:52:31.847Z,18.13
2018-05-02T01:53:31.763Z,18.15
2018-05-02T01:54:31.933Z,18.13
2018-05-02T01:55:31.894Z,18.15
2018-05-02T01:56:31.799Z,18.18
2018-05-02T01:57:31.792Z,18.18
2018-05-02T01:58:31.890Z,18.12
2018-05-02T01:59:31.915Z,18.16
2018-05-02T02:00:31.794Z,18.15
2018-05-02T02:01:31.957Z,18.15
2018-05-02T02:02:31.983Z,18.15
2018-05-02T02:03:31.791Z,18.16
2018-05-02T02:04:31.999Z,18.13
2018-05-02T02:05:31.930Z,18.15
2018-05-02T02:06:31.883Z,18.16
2018-05-02T02:07:31.887Z,18.13
2018-05-02T02:08:31.858Z,18.13
2018-05-02T02:09:31.941Z,18.15
2018-05-02T02:10:31.973Z,18.12
2018-05-02T02:11:31.807Z,18.13
2018-05-02T02:12:31.913Z,18.13
2018-05-02T02:13:31.994Z,18.13
2018-05-02T02:14:31.937Z,18.15
2018-05-02T02:15:31.855Z,18.13
2018-05-02T02:16:31.821Z,18.12
2018-05-02T02:17:31.806Z,18.13
2018-05-02T02:18:31.748Z,18.13
2018-05-02T02:19:31.840Z,18.12
2018-05-02T02:20:31.855Z,18.13
2018-05-02T02:21:31.791Z,18.15
2018-05-02T02:22:31.915Z,18.11
2018-05-02T02:23:32.047Z,18.11
2018-05-02T02:24:31.897Z,18.13
2018-05-02T02:25:31.881Z,18.12
2018-05-02T02:26:32.015Z,18.12
2018-05-02T02:27:31.923Z,18.13
2018-05-02T02:28:32.134Z,18.11
2018-05-02T02:29:31.847Z,18.12
2018-05-02T02:30:31.993Z,18.13
2018-05-02T02:31:31.925Z,18.11
2018-05-02T02:32:31.932Z,18.13
2018-05-02T02:33:31.797Z,18.12
2018-05-02T02:34:32.083Z,18.09
2018-05-02T02:35:31.976Z,18.12
2018-05-02T02:36:32.006Z,18.11
2018-05-02T02:37:31.869Z,18.11
2018-05-02T02:38:31.788Z,18.11
2018-05-02T02:39:31.887Z,18.12
2018-05-02T02:40:31.941Z,18.08
2018-05-02T02:41:32.038Z,18.12
2018-05-02T02:42:32.049Z,18.15
2018-05-02T02:43:31.915Z,18.08
2018-05-02T02:44:31.992Z,18.09
2018-05-02T02:45:31.855Z,18.12
2018-05-02T02:46:32.005Z,18.08
2018-05-02T02:47:31.982Z,18.12
2018-05-02T02:48:32.059Z,18.11
2018-05-02T02:49:31.889Z,18.07
2018-05-02T02:50:32.015Z,18.12
2018-05-02T02:51:31.911Z,18.11
2018-05-02T02:52:32.021Z,18.09
2018-05-02T02:53:31.900Z,18.12
2018-05-02T02:54:31.924Z,18.11
2018-05-02T02:55:31.868Z,18.09
2018-05-02T02:56:31.919Z,18.09
2018-05-02T02:57:31.923Z,18.09
2018-05-02T02:58:31.988Z,18.12
2018-05-02T02:59:32.003Z,18.15
2018-05-02T03:00:31.904Z,18.12
2018-05-02T03:01:31.964Z,18.09
2018-05-02T03:02:31.877Z,18.09
2018-05-02T03:03:31.999Z,18.09
2018-05-02T03:04:32.086Z,18.09
2018-05-02T03:05:32.036Z,18.08
2018-05-02T03:06:31.851Z,18.11
2018-05-02T03:07:31.820Z,18.07
2018-05-02T03:08:55.449Z,18.07
2018-05-02T03:09:31.804Z,18.09
2018-05-02T03:10:33.458Z,18.07
2018-05-02T03:11:32.193Z,18.11
2018-05-02T03:12:33.646Z,18.09
2018-05-02T03:13:31.910Z,18.08
2018-05-02T03:14:33.569Z,18.09
2018-05-02T03:15:33.462Z,18.08
2018-05-02T03:16:32.041Z,18.05
2018-05-02T03:17:31.935Z,18.08
2018-05-02T03:18:33.683Z,18.08
2018-05-02T03:19:33.749Z,18.07
2018-05-02T03:20:33.239Z,18.08
2018-05-02T03:21:31.841Z,18.07
2018-05-02T03:22:32.058Z,18.07
2018-05-02T03:23:33.746Z,18.08
2018-05-02T03:24:33.726Z,18.07
2018-05-02T03:25:31.828Z,18.07
2018-05-02T03:26:31.942Z,18.09
2018-05-02T03:27:31.861Z,18.09
2018-05-02T03:28:31.847Z,18.07
2018-05-02T03:29:31.795Z,18.07
2018-05-02T03:30:31.996Z,18.08
2018-05-02T03:31:31.961Z,18.07
2018-05-02T03:32:32.005Z,18.05
2018-05-02T03:33:31.892Z,18.05
2018-05-02T03:34:31.873Z,18.04
2018-05-02T03:35:31.834Z,18.08
2018-05-02T03:36:31.929Z,18.08
2018-05-02T03:37:31.997Z,18.08
2018-05-02T03:38:31.795Z,18.05
2018-05-02T03:39:31.763Z,18.07
2018-05-02T03:40:31.863Z,18.04
2018-05-02T03:41:31.894Z,18.05
2018-05-02T03:42:31.818Z,18.05
2018-05-02T03:43:31.923Z,18.04
2018-05-02T03:44:31.881Z,18.07
2018-05-02T03:45:31.932Z,18.07
2018-05-02T03:46:31.751Z,18.04
2018-05-02T03:47:31.785Z,18.04
2018-05-02T03:48:31.856Z,18.05
2018-05-02T03:49:31.837Z,18.04
2018-05-02T03:50:31.828Z,18.04
2018-05-02T03:51:31.773Z,18.07
2018-05-02T03:52:31.952Z,18.02
2018-05-02T03:53:31.835Z,18.08
2018-05-02T03:54:31.793Z,18.02
2018-05-02T03:55:31.862Z,18.05
2018-05-02T03:56:31.779Z,18.04
2018-05-02T03:57:31.745Z,18.05
2018-05-02T03:58:31.804Z,18.04
2018-05-02T03:59:31.878Z,18.07
2018-05-02T04:00:31.826Z,18.04
2018-05-02T04:01:31.808Z,18.05
2018-05-02T04:02:31.923Z,18.05
2018-05-02T04:03:31.864Z,18.04
2018-05-02T04:04:31.848Z,18.04
2018-05-02T04:05:31.868Z,18.04
2018-05-02T04:06:31.938Z,18.07
2018-05-02T04:07:31.974Z,18.02
2018-05-02T04:08:32.428Z,18.07
2018-05-02T04:09:31.717Z,18.05
2018-05-02T04:10:31.966Z,18.02
2018-05-02T04:11:31.771Z,18.02
2018-05-02T04:12:31.784Z,18.05
2018-05-02T04:13:31.922Z,18.01
2018-05-02T04:14:31.905Z,18.02
2018-05-02T04:15:31.843Z,18.02
2018-05-02T04:16:31.907Z,18.02
2018-05-02T04:17:31.802Z,18.02
2018-05-02T04:18:31.826Z,18.05
2018-05-02T04:19:32.003Z,18.02
2018-05-02T04:20:31.906Z,18.04
2018-05-02T04:21:31.899Z,18.02
2018-05-02T04:22:31.915Z,18.02
2018-05-02T04:23:31.861Z,18.04
2018-05-02T04:24:31.840Z,18.02
2018-05-02T04:25:31.757Z,18.02
2018-05-02T04:26:31.930Z,18.04
2018-05-02T04:27:31.912Z,18.02
2018-05-02T04:28:31.798Z,18.01
2018-05-02T04:29:31.993Z,18.04
2018-05-02T04:30:31.739Z,18.02
2018-05-02T04:31:31.918Z,18
2018-05-02T04:32:31.795Z,18
2018-05-02T04:33:31.799Z,18.02
2018-05-02T04:34:31.997Z,18.01
2018-05-02T04:35:31.827Z,18.04
2018-05-02T04:36:31.820Z,18.04
2018-05-02T04:37:31.880Z,18.02
2018-05-02T04:38:31.860Z,18.02
2018-05-02T04:39:31.897Z,18.04
2018-05-02T04:40:31.940Z,18.01
2018-05-02T04:41:33.654Z,18.07
2018-05-02T04:42:31.890Z,18.04
2018-05-02T04:43:31.983Z,18.01
2018-05-02T04:44:33.520Z,18.02
2018-05-02T04:45:33.409Z,18.04
2018-05-02T04:46:33.513Z,18.02
2018-05-02T04:47:31.782Z,18.04
2018-05-02T04:48:31.829Z,18.04
2018-05-02T04:49:33.591Z,18.04
2018-05-02T04:50:33.287Z,18.04
2018-05-02T04:51:33.289Z,18.04
2018-05-02T04:52:31.879Z,18.02
2018-05-02T04:53:33.736Z,18.02
2018-05-02T04:54:33.716Z,18.02
2018-05-02T04:55:33.656Z,17.98
2018-05-02T04:56:31.790Z,18.02
2018-05-02T04:57:33.797Z,18.02
2018-05-02T04:58:33.387Z,18.04
2018-05-02T04:59:34.255Z,18.04
2018-05-02T05:00:33.402Z,18.04
2018-05-02T05:01:33.361Z,18.01
2018-05-02T05:02:33.353Z,18.01
2018-05-02T05:03:33.361Z,18.04
2018-05-02T05:04:33.420Z,18.02
2018-05-02T05:05:33.361Z,18.02
2018-05-02T05:06:33.997Z,18.05
2018-05-02T05:07:33.636Z,18.01
2018-05-02T05:08:33.671Z,18.02
2018-05-02T05:09:33.699Z,18.04
2018-05-02T05:10:33.560Z,18.02
2018-05-02T05:11:33.525Z,18.02
2018-05-02T05:12:31.949Z,18.02
2018-05-02T05:13:33.511Z,18
2018-05-02T05:14:31.838Z,18.02
2018-05-02T05:15:31.884Z,18.05
2018-05-02T05:16:33.456Z,18.02
2018-05-02T05:17:33.572Z,18.04
2018-05-02T05:18:33.578Z,18.02
2018-05-02T05:19:33.428Z,18.01
2018-05-02T05:20:33.348Z,18.04
2018-05-02T05:21:33.314Z,18.04
2018-05-02T05:22:33.375Z,18
2018-05-02T05:23:33.403Z,18.04
2018-05-02T05:24:33.464Z,18.02
2018-05-02T05:25:33.351Z,18.01
2018-05-02T05:26:33.142Z,18.02
2018-05-02T05:27:33.595Z,18.02
2018-05-02T05:28:33.822Z,18
2018-05-02T05:29:33.412Z,18.01
2018-05-02T05:30:33.448Z,18.04
2018-05-02T05:31:33.694Z,18.01
2018-05-02T05:32:33.604Z,18
2018-05-02T05:33:32.090Z,18.04
2018-05-02T05:34:33.644Z,18.01
2018-05-02T05:35:33.689Z,18.02
2018-05-02T05:36:33.756Z,18.04
2018-05-02T05:37:33.266Z,18
2018-05-02T05:38:32.505Z,18.02
2018-05-02T05:39:33.301Z,18.04
2018-05-02T05:40:33.721Z,18.01
2018-05-02T05:41:33.661Z,18.02
2018-05-02T05:42:33.473Z,18.04
2018-05-02T05:43:33.926Z,18
2018-05-02T05:44:32.495Z,18.02
2018-05-02T05:45:32.660Z,18.04
2018-05-02T05:46:32.502Z,18.01
2018-05-02T05:47:32.440Z,18.02
2018-05-02T05:48:32.474Z,18.02
2018-05-02T05:49:32.461Z,18.01
2018-05-02T05:50:32.486Z,18.01
2018-05-02T05:51:32.368Z,18.02
2018-05-02T05:52:33.108Z,18.02
2018-05-02T05:53:32.704Z,18.01
2018-05-02T05:54:33.727Z,18.02
2018-05-02T05:55:32.709Z,18.01
2018-05-02T05:56:32.526Z,18.04
2018-05-02T05:57:31.795Z,18.05
2018-05-02T05:58:31.849Z,18
2018-05-02T05:59:31.880Z,18.01
2018-05-02T06:00:31.987Z,18.02
2018-05-02T06:01:31.776Z,18.01
2018-05-02T06:02:31.925Z,18
2018-05-02T06:03:32.010Z,18.05
2018-05-02T06:04:31.689Z,18.01
2018-05-02T06:05:31.941Z,18.01
2018-05-02T06:06:31.878Z,18.02
2018-05-02T06:07:31.800Z,18.02
2018-05-02T06:08:31.839Z,18.05
2018-05-02T06:09:31.830Z,18.04
2018-05-02T06:10:31.913Z,18
2018-05-02T06:11:31.772Z,18.04
2018-05-02T06:12:31.896Z,18.02
2018-05-02T06:13:31.883Z,18.04
2018-05-02T06:14:31.697Z,18.02
2018-05-02T06:15:31.934Z,18.05
2018-05-02T06:16:31.650Z,18.02
2018-05-02T06:17:31.651Z,18.01
2018-05-02T06:18:31.688Z,18.01
2018-05-02T06:19:31.895Z,18.01
2018-05-02T06:20:31.904Z,18.02
2018-05-02T06:21:31.999Z,18.04
2018-05-02T06:22:31.684Z,18
2018-05-02T06:23:31.877Z,18.04
2018-05-02T06:24:31.774Z,18.02
2018-05-02T06:25:31.874Z,18.02
2018-05-02T06:26:31.902Z,18.02
2018-05-02T06:27:31.878Z,18.04
2018-05-02T06:28:31.645Z,18.01
2018-05-02T06:29:31.723Z,18.01
2018-05-02T06:30:31.687Z,18.02
2018-05-02T06:31:31.719Z,18.01
2018-05-02T06:32:31.701Z,18.01
2018-05-02T06:33:31.835Z,18.04
2018-05-02T06:34:31.736Z,18.01
2018-05-02T06:35:31.791Z,18.02
2018-05-02T06:36:31.723Z,18.02
2018-05-02T06:37:32.065Z,18.02
2018-05-02T06:38:31.895Z,18.01
2018-05-02T06:39:31.931Z,18.02
2018-05-02T06:40:31.882Z,18.01
2018-05-02T06:41:31.713Z,18.02
2018-05-02T06:42:31.746Z,18.02
2018-05-02T06:43:32.919Z,18
2018-05-02T06:44:32.584Z,18.02
2018-05-02T06:45:31.820Z,18.02
2018-05-02T06:46:31.771Z,18.01
2018-05-02T06:47:31.780Z,18.02
2018-05-02T06:48:31.959Z,18.01
2018-05-02T06:49:31.818Z,18.01
2018-05-02T06:50:31.783Z,18.01
2018-05-02T06:51:31.765Z,18.02
2018-05-02T06:52:31.806Z,18
2018-05-02T06:53:31.902Z,18
2018-05-02T06:54:31.936Z,18.04
2018-05-02T06:55:31.795Z,18
2018-05-02T06:56:31.793Z,18.02
2018-05-02T06:57:31.785Z,18.04
2018-05-02T06:58:31.807Z,18.02
2018-05-02T06:59:31.963Z,18.04
2018-05-02T07:00:31.929Z,18.02
2018-05-02T07:01:31.819Z,18.02
2018-05-02T07:02:31.887Z,18.02
2018-05-02T07:03:31.879Z,18.01
2018-05-02T07:04:31.733Z,18.02
2018-05-02T07:05:32.017Z,18.09
2018-05-02T07:06:31.807Z,18.09
2018-05-02T07:07:31.762Z,18.12
2018-05-02T07:08:31.741Z,18.11
2018-05-02T07:09:31.924Z,18.12
2018-05-02T07:10:31.837Z,18.12
2018-05-02T07:11:31.785Z,18.13
2018-05-02T07:12:31.795Z,18.12
2018-05-02T07:13:32.278Z,18.16
2018-05-02T07:14:32.005Z,18.15
2018-05-02T07:15:32.038Z,18.13
2018-05-02T07:16:31.786Z,18.11
2018-05-02T07:17:31.786Z,18.11
2018-05-02T07:18:31.841Z,18.11
2018-05-02T07:19:31.904Z,18.09
2018-05-02T07:20:31.824Z,18.09
2018-05-02T07:21:31.811Z,18.09
2018-05-02T07:22:31.883Z,18.07
2018-05-02T07:23:31.772Z,18.08
2018-05-02T07:24:31.752Z,18.08
2018-05-02T07:25:31.841Z,18.05
2018-05-02T07:26:31.783Z,18.07
2018-05-02T07:27:31.965Z,18.08
2018-05-02T07:28:31.804Z,18.07
2018-05-02T07:29:31.817Z,18.07
2018-05-02T07:30:31.909Z,18.07
2018-05-02T07:31:31.671Z,18.04
2018-05-02T07:32:33.050Z,18.05
2018-05-02T07:33:31.767Z,18.05
2018-05-02T07:34:31.662Z,18.04
2018-05-02T07:35:31.844Z,18.05
2018-05-02T07:36:31.911Z,18.07
2018-05-02T07:37:31.804Z,18.01
2018-05-02T07:38:31.772Z,18.05
2018-05-02T07:39:31.919Z,18.05
2018-05-02T07:40:31.932Z,18.02
2018-05-02T07:41:31.969Z,18.04
2018-05-02T07:42:31.689Z,18.05
2018-05-02T07:43:31.682Z,18.02
2018-05-02T07:44:31.804Z,18.02
2018-05-02T07:45:31.918Z,18.05
2018-05-02T07:46:31.811Z,18.01
2018-05-02T07:47:31.813Z,18.04
2018-05-02T07:48:32.132Z,18.04
2018-05-02T07:49:31.700Z,18.01
2018-05-02T07:50:31.803Z,18.04
2018-05-02T07:51:31.789Z,18.05
2018-05-02T07:52:31.748Z,18.01
2018-05-02T07:53:31.745Z,18.01
2018-05-02T07:54:31.887Z,18.07
2018-05-02T07:55:31.681Z,18.01
2018-05-02T07:56:32.411Z,18.04
2018-05-02T07:57:31.904Z,18.05
2018-05-02T07:58:31.797Z,18.01
2018-05-02T07:59:31.650Z,18.02
2018-05-02T08:00:31.671Z,18.04
2018-05-02T08:01:31.766Z,18
2018-05-02T08:02:31.693Z,18.01
2018-05-02T08:03:31.807Z,18.04
2018-05-02T08:04:31.877Z,18
2018-05-02T08:05:31.741Z,18.01
2018-05-02T08:06:31.890Z,18.05
2018-05-02T08:07:31.846Z,18
2018-05-02T08:08:31.775Z,18.04
2018-05-02T08:09:31.686Z,18.02
2018-05-02T08:10:31.929Z,18.02
2018-05-02T08:11:31.698Z,18.01
2018-05-02T08:12:31.694Z,18.01
2018-05-02T08:13:31.881Z,18.01
2018-05-02T08:14:31.949Z,18.01
2018-05-02T08:15:31.910Z,18.01
2018-05-02T08:16:32.657Z,18
2018-05-02T08:17:31.733Z,18.01
2018-05-02T08:18:31.760Z,18.02
2018-05-02T08:19:31.672Z,17.98
2018-05-02T08:20:31.806Z,18.01
2018-05-02T08:21:31.721Z,18.02
2018-05-02T08:22:31.809Z,18
2018-05-02T08:23:31.722Z,18
2018-05-02T08:24:31.837Z,18.01
2018-05-02T08:25:31.846Z,17.98
2018-05-02T08:26:31.748Z,18.02
2018-05-02T08:27:31.700Z,18.01
2018-05-02T08:28:31.798Z,17.98
2018-05-02T08:29:31.816Z,18.01
2018-05-02T08:30:31.692Z,18.01
2018-05-02T08:31:31.814Z,18.01
2018-05-02T08:32:31.882Z,18
2018-05-02T08:33:31.689Z,18.01
2018-05-02T08:34:31.828Z,18
2018-05-02T08:35:31.982Z,18
2018-05-02T08:36:31.790Z,18
2018-05-02T08:37:31.797Z,18.01
2018-05-02T08:38:31.762Z,17.98
2018-05-02T08:39:31.871Z,18.01
2018-05-02T08:40:31.940Z,17.98
2018-05-02T08:41:31.887Z,17.97
2018-05-02T08:42:31.914Z,18.01
2018-05-02T08:43:31.803Z,17.97
2018-05-02T08:44:31.742Z,18
2018-05-02T08:45:31.822Z,18
2018-05-02T08:46:31.708Z,17.97
2018-05-02T08:47:31.817Z,18
2018-05-02T08:48:31.711Z,17.98
2018-05-02T08:49:31.802Z,17.97
2018-05-02T08:50:31.687Z,17.98
2018-05-02T08:51:31.808Z,18.01
2018-05-02T08:52:31.837Z,17.98
2018-05-02T08:53:31.859Z,18
2018-05-02T08:54:31.805Z,17.98
2018-05-02T08:55:31.753Z,17.98
2018-05-02T08:56:31.736Z,17.98
2018-05-02T08:57:32.370Z,18.01
2018-05-02T08:58:31.862Z,17.98
2018-05-02T08:59:31.717Z,18
2018-05-02T09:00:31.804Z,17.98
2018-05-02T09:01:31.838Z,17.94
2018-05-02T09:02:31.685Z,17.98
2018-05-02T09:03:31.837Z,17.98
2018-05-02T09:04:31.775Z,17.98
2018-05-02T09:05:31.814Z,17.98
2018-05-02T09:06:31.856Z,18
2018-05-02T09:07:31.719Z,17.97
2018-05-02T09:08:31.843Z,17.98
2018-05-02T09:09:31.728Z,17.98
2018-05-02T09:10:31.852Z,17.95
2018-05-02T09:11:31.719Z,17.97
2018-05-02T09:12:31.646Z,17.98
2018-05-02T09:13:31.888Z,17.97
2018-05-02T09:14:31.792Z,17.95
2018-05-02T09:15:32.416Z,17.98
2018-05-02T09:16:31.784Z,17.94
2018-05-02T09:17:31.626Z,17.95
2018-05-02T09:18:31.656Z,17.98
2018-05-02T09:19:31.878Z,17.97
2018-05-02T09:20:31.741Z,17.95
2018-05-02T09:21:31.686Z,17.97
2018-05-02T09:22:31.725Z,17.94
2018-05-02T09:23:31.914Z,17.97
2018-05-02T09:24:31.556Z,17.98
2018-05-02T09:25:31.877Z,17.97
2018-05-02T09:26:31.840Z,17.97
2018-05-02T09:27:31.785Z,17.97
2018-05-02T09:28:31.869Z,17.95
2018-05-02T09:29:31.676Z,17.95
2018-05-02T09:30:31.828Z,17.95
2018-05-02T09:31:31.944Z,17.94
2018-05-02T09:32:31.777Z,17.97
2018-05-02T09:33:31.809Z,17.97
2018-05-02T09:34:31.697Z,17.97
2018-05-02T09:35:32.121Z,17.97
2018-05-02T09:36:31.659Z,17.98
2018-05-02T09:37:31.651Z,17.94
2018-05-02T09:38:31.697Z,17.94
2018-05-02T09:39:31.758Z,17.95
2018-05-02T09:40:31.732Z,17.94
2018-05-02T09:41:31.758Z,17.97
2018-05-02T09:42:31.733Z,17.95
2018-05-02T09:43:31.733Z,17.94
2018-05-02T09:44:31.781Z,17.95
2018-05-02T09:45:31.589Z,17.98
2018-05-02T09:46:31.950Z,17.94
2018-05-02T09:47:31.793Z,17.93
2018-05-02T09:48:31.744Z,17.95
2018-05-02T09:49:31.672Z,17.97
2018-05-02T09:50:31.787Z,17.95
2018-05-02T09:51:31.783Z,18
2018-05-02T09:52:31.702Z,17.94
2018-05-02T09:53:31.795Z,17.97
2018-05-02T09:54:31.644Z,17.97
2018-05-02T09:55:31.622Z,17.94
2018-05-02T09:56:31.652Z,17.98
2018-05-02T09:57:31.733Z,17.98
2018-05-02T09:58:31.802Z,17.97
2018-05-02T09:59:31.770Z,17.97
2018-05-02T10:00:31.870Z,17.95
2018-05-02T10:01:31.501Z,17.95
2018-05-02T10:02:31.756Z,17.95
2018-05-02T10:03:31.914Z,17.94
2018-05-02T10:04:32.523Z,17.94
2018-05-02T10:05:31.829Z,17.95
2018-05-02T10:06:31.766Z,17.95
2018-05-02T10:07:31.711Z,17.93
2018-05-02T10:08:31.741Z,17.95
2018-05-02T10:09:31.788Z,17.95
2018-05-02T10:10:31.647Z,17.93
2018-05-02T10:11:31.729Z,17.95
2018-05-02T10:12:32.263Z,17.93
2018-05-02T10:13:31.803Z,17.93
2018-05-02T10:14:31.795Z,17.95
2018-05-02T10:15:32.082Z,17.95
2018-05-02T10:16:31.716Z,17.94
2018-05-02T10:17:31.781Z,17.95
2018-05-02T10:18:32.380Z,17.95
2018-05-02T10:19:31.621Z,17.94
2018-05-02T10:20:31.835Z,17.97
2018-05-02T10:21:31.642Z,17.95
2018-05-02T10:22:31.765Z,17.95
2018-05-02T10:23:31.775Z,17.95
2018-05-02T10:24:31.652Z,17.94
2018-05-02T10:25:31.613Z,17.93
2018-05-02T10:26:31.594Z,17.94
2018-05-02T10:27:31.879Z,17.95
2018-05-02T10:28:31.848Z,17.94
2018-05-02T10:29:31.619Z,17.95
2018-05-02T10:30:31.711Z,17.95
2018-05-02T10:31:31.578Z,17.95
2018-05-02T10:32:31.812Z,17.97
2018-05-02T10:33:31.825Z,17.95
2018-05-02T10:34:31.650Z,17.91
2018-05-02T10:35:31.651Z,17.95
2018-05-02T10:36:31.755Z,17.97
2018-05-02T10:37:31.824Z,17.94
2018-05-02T10:38:31.607Z,17.95
2018-05-02T10:39:31.790Z,17.95
2018-05-02T10:40:31.627Z,17.95
2018-05-02T10:41:31.717Z,17.94
2018-05-02T10:42:31.733Z,17.95
2018-05-02T10:43:31.635Z,17.94
2018-05-02T10:44:31.800Z,17.94
2018-05-02T10:45:31.761Z,17.95
2018-05-02T10:46:31.675Z,17.94
2018-05-02T10:47:31.821Z,17.95
2018-05-02T10:48:31.707Z,17.95
2018-05-02T10:49:31.791Z,17.93
2018-05-02T10:50:32.364Z,17.95
2018-05-02T10:51:31.638Z,17.93
2018-05-02T10:52:31.802Z,17.94
2018-05-02T10:53:31.801Z,17.93
2018-05-02T10:54:31.814Z,17.95
2018-05-02T10:55:31.799Z,17.94
2018-05-02T10:56:31.732Z,17.95
2018-05-02T10:57:31.765Z,17.94
2018-05-02T10:58:31.747Z,17.94
2018-05-02T10:59:31.796Z,17.95
2018-05-02T11:00:31.643Z,17.93
2018-05-02T11:01:31.597Z,17.93
2018-05-02T11:02:31.709Z,17.91
2018-05-02T11:03:31.674Z,17.95
2018-05-02T11:04:31.809Z,17.93
2018-05-02T11:05:31.788Z,17.97
2018-05-02T11:06:31.649Z,17.93
2018-05-02T11:07:31.825Z,17.93
2018-05-02T11:08:31.815Z,17.93
2018-05-02T11:09:31.815Z,17.94
2018-05-02T11:10:31.669Z,17.91
2018-05-02T11:11:31.863Z,17.93
2018-05-02T11:12:31.660Z,17.94
2018-05-02T11:13:31.766Z,17.93
2018-05-02T11:14:31.620Z,17.94
2018-05-02T11:15:31.653Z,17.94
2018-05-02T11:16:31.619Z,17.94
2018-05-02T11:17:31.778Z,17.93
2018-05-02T11:18:31.911Z,17.94
2018-05-02T11:19:31.639Z,17.93
2018-05-02T11:20:31.744Z,17.91
2018-05-02T11:21:31.562Z,17.97
2018-05-02T11:22:31.675Z,17.89
2018-05-02T11:23:31.971Z,17.93
2018-05-02T11:24:31.806Z,17.93
2018-05-02T11:25:31.719Z,17.93
2018-05-02T11:26:31.819Z,17.95
2018-05-02T11:27:31.680Z,17.95
2018-05-02T11:28:32.022Z,17.89
2018-05-02T11:29:31.876Z,17.93
2018-05-02T11:30:31.626Z,17.91
2018-05-02T11:31:31.607Z,17.89
2018-05-02T11:32:31.846Z,17.93
2018-05-02T11:33:31.652Z,17.94
2018-05-02T11:34:31.686Z,17.91
2018-05-02T11:35:31.845Z,17.93
2018-05-02T11:36:31.797Z,17.93
2018-05-02T11:37:31.877Z,17.89
2018-05-02T11:38:31.739Z,17.93
2018-05-02T11:39:31.741Z,17.93
2018-05-02T11:40:32.248Z,17.93
2018-05-02T11:41:31.614Z,17.91
2018-05-02T11:42:31.698Z,17.94
2018-05-02T11:43:31.711Z,17.93
2018-05-02T11:44:31.668Z,17.93
2018-05-02T11:45:31.629Z,17.94
2018-05-02T11:46:31.655Z,17.91
2018-05-02T11:47:31.587Z,17.91
2018-05-02T11:48:31.835Z,17.94
2018-05-02T11:49:31.620Z,17.94
2018-05-02T11:50:31.591Z,17.93
2018-05-02T11:51:31.857Z,17.94
2018-05-02T11:52:31.712Z,17.93
2018-05-02T11:53:31.961Z,17.93
2018-05-02T11:54:31.770Z,17.93
2018-05-02T11:55:31.806Z,17.91
2018-05-02T11:56:31.752Z,17.91
2018-05-02T11:57:31.681Z,17.94
2018-05-02T11:58:31.826Z,17.91
2018-05-02T11:59:31.790Z,17.93
2018-05-02T12:00:31.807Z,17.93
2018-05-02T12:01:31.889Z,17.93
2018-05-02T12:02:32.263Z,17.94
2018-05-02T12:03:32.270Z,17.91
2018-05-02T12:04:31.713Z,17.91
2018-05-02T12:05:31.812Z,17.88
2018-05-02T12:06:31.692Z,17.93
2018-05-02T12:07:31.605Z,17.94
2018-05-02T12:08:31.811Z,17.93
2018-05-02T12:09:31.590Z,17.93
2018-05-02T12:10:32.405Z,17.93
2018-05-02T12:11:31.664Z,17.91
2018-05-02T12:12:31.708Z,17.94
2018-05-02T12:13:31.691Z,17.89
2018-05-02T12:14:31.721Z,17.93
2018-05-02T12:15:31.724Z,17.93
2018-05-02T12:16:31.634Z,17.89
2018-05-02T12:17:31.550Z,17.94
2018-05-02T12:18:31.628Z,17.93
2018-05-02T12:19:31.704Z,17.93
2018-05-02T12:20:31.666Z,17.91
2018-05-02T12:21:31.669Z,17.95
2018-05-02T12:22:31.698Z,17.89
2018-05-02T12:23:31.657Z,17.93
2018-05-02T12:24:31.768Z,17.91
2018-05-02T12:25:31.618Z,17.93
2018-05-02T12:26:31.779Z,17.93
2018-05-02T12:27:31.686Z,17.91
2018-05-02T12:28:31.774Z,17.91
2018-05-02T12:29:31.686Z,17.93
2018-05-02T12:30:31.651Z,17.93
2018-05-02T12:31:54.952Z,17.94
2018-05-02T12:32:31.562Z,17.91
2018-05-02T12:33:31.701Z,17.93
2018-05-02T12:34:31.740Z,17.88
2018-05-02T12:35:32.491Z,17.91
2018-05-02T12:36:31.709Z,17.94
2018-05-02T12:37:31.734Z,17.89
2018-05-02T12:38:31.872Z,17.93
2018-05-02T12:39:31.938Z,17.91
2018-05-02T12:40:31.620Z,17.89
2018-05-02T12:41:31.629Z,17.91
2018-05-02T12:42:31.939Z,17.91
2018-05-02T12:43:31.811Z,17.89
2018-05-02T12:44:31.549Z,17.93
2018-05-02T12:45:31.792Z,17.91
2018-05-02T12:46:31.840Z,17.89
2018-05-02T12:47:31.567Z,17.91
2018-05-02T12:48:31.774Z,17.88
2018-05-02T12:49:31.757Z,17.89
2018-05-02T12:50:31.653Z,17.89
2018-05-02T12:51:31.680Z,17.89
2018-05-02T12:52:31.584Z,17.89
2018-05-02T12:53:31.809Z,17.91
2018-05-02T12:54:31.684Z,17.93
2018-05-02T12:55:31.657Z,17.89